createdAt,value
2018-08-19T00:00:32.478Z,102283.55
2018-08-19T00:03:35.868Z,102286.17
2018-08-19T00:06:39.200Z,102291.07
2018-08-19T00:09:43.515Z,102288.27
2018-08-19T00:12:48.030Z,102293.14
2018-08-19T00:15:52.535Z,102298.87
2018-08-19T00:18:55.868Z,102305.95
2018-08-19T00:21:59.135Z,102310.11
2018-08-19T00:25:02.469Z,102314.99
2018-08-19T00:28:08.313Z,102320.37
2018-08-19T00:31:11.614Z,102321.17
2018-08-19T00:34:17.393Z,102314.98
2018-08-19T00:37:21.583Z,102311.92
2018-08-19T00:40:25.622Z,102311.36
2018-08-19T00:43:29.239Z,102316.18
2018-08-19T00:46:33.043Z,102310.66
2018-08-19T00:49:36.357Z,102308.65
2018-08-19T00:52:39.849Z,102305.08
2018-08-19T00:55:48.682Z,102303.98
2018-08-19T00:58:53.260Z,102307.17
2018-08-19T01:01:56.935Z,102313.72
2018-08-19T01:05:01.101Z,102318.94
2018-08-19T01:08:04.410Z,102315.35
2018-08-19T01:11:29.224Z,102315.70
2018-08-19T01:14:32.674Z,102316.05
2018-08-19T01:17:41.185Z,102316.75
2018-08-19T01:20:44.948Z,102314.14
2018-08-19T01:23:48.466Z,102317.12
2018-08-19T01:26:53.228Z,102321.74
2018-08-19T01:29:56.478Z,102315.79
2018-08-19T01:32:59.998Z,102317.57
2018-08-19T01:36:03.585Z,102316.42
2018-08-19T01:39:10.838Z,102318.26
2018-08-19T01:42:14.195Z,102320.52
2018-08-19T01:45:17.490Z,102321.75
2018-08-19T01:51:46.512Z,102331.21
2018-08-19T01:54:49.774Z,102325.46
2018-08-19T01:57:53.539Z,102328.10
2018-08-19T02:00:56.954Z,102321.25
2018-08-19T02:04:00.306Z,102330.99
2018-08-19T02:07:03.777Z,102330.38
2018-08-19T02:10:08.759Z,102325.66
2018-08-19T02:13:12.183Z,102318.99
2018-08-19T02:16:17.412Z,102316.83
2018-08-19T02:19:20.680Z,102317.85
2018-08-19T02:22:24.047Z,102320.51
2018-08-19T02:25:32.168Z,102321.32
2018-08-19T02:28:36.088Z,102324.29
2018-08-19T02:31:39.300Z,102325.34
2018-08-19T02:34:45.561Z,102323.22
2018-08-19T02:37:49.529Z,102330.14
2018-08-19T02:40:54.143Z,102331.33
2018-08-19T02:43:58.850Z,102331.62
2018-08-19T02:47:02.306Z,102335.79
2018-08-19T02:50:10.065Z,102333.56
2018-08-19T02:53:13.321Z,102327.24
2018-08-19T02:56:19.081Z,102327.70
2018-08-19T02:59:22.490Z,102328.72
2018-08-19T03:02:30.303Z,102327.77
2018-08-19T03:05:33.606Z,102327.49
2018-08-19T03:08:43.717Z,102326.28
2018-08-19T03:11:52.625Z,102324.41
2018-08-19T03:14:56.345Z,102323.80
2018-08-19T03:17:59.603Z,102320.14
2018-08-19T03:21:02.856Z,102321.52
2018-08-19T03:24:06.769Z,102324.86
2018-08-19T03:27:10.357Z,102325.66
2018-08-19T03:30:16.750Z,102326.37
2018-08-19T03:33:20.099Z,102326.40
2018-08-19T03:36:23.465Z,102321.15
2018-08-19T03:39:27.007Z,102328.20
2018-08-19T03:42:30.281Z,102326.60
2018-08-19T03:45:33.746Z,102327.29
2018-08-19T03:48:37.132Z,102329.88
2018-08-19T03:51:40.899Z,102334.95
2018-08-19T03:54:47.193Z,102334.11
2018-08-19T03:57:50.662Z,102334.32
2018-08-19T04:00:54.065Z,102335.76
2018-08-19T04:03:57.368Z,102344.54
2018-08-19T04:07:00.730Z,102340.72
2018-08-19T04:10:04.359Z,102340.58
2018-08-19T04:13:24.854Z,102341.86
2018-08-19T04:16:28.195Z,102342.84
2018-08-19T04:19:31.473Z,102336.89
2018-08-19T04:22:34.780Z,102335.80
2018-08-19T04:25:38.079Z,102338.44
2018-08-19T04:28:42.498Z,102336.30
2018-08-19T04:31:46.887Z,102331.88
2018-08-19T04:34:50.215Z,102332.86
2018-08-19T04:37:53.629Z,102335.09
2018-08-19T04:40:57.999Z,102334.29
2018-08-19T04:44:01.320Z,102335.85
2018-08-19T04:47:19.998Z,102336.51
2018-08-19T04:50:23.344Z,102336.63
2018-08-19T04:53:26.664Z,102344.52
2018-08-19T04:56:30.339Z,102348.79
2018-08-19T04:59:33.772Z,102354.62
2018-08-19T05:02:37.031Z,102356.69
2018-08-19T05:05:40.607Z,102360.77
2018-08-19T05:08:43.890Z,102362.50
2018-08-19T05:11:48.587Z,102360.96
2018-08-19T05:14:52.288Z,102360.20
2018-08-19T05:17:55.754Z,102355.18
2018-08-19T05:21:04.599Z,102354.99
2018-08-19T05:24:07.863Z,102350.44
2018-08-19T05:27:11.109Z,102345.45
2018-08-19T05:30:14.427Z,102348.86
2018-08-19T05:33:17.730Z,102350.65
2018-08-19T05:36:21.207Z,102351.04
2018-08-19T05:39:24.504Z,102355.37
2018-08-19T05:42:28.883Z,102356.04
2018-08-19T05:45:33.370Z,102361.57
2018-08-19T05:48:36.679Z,102366.84
2018-08-19T05:51:39.873Z,102367.71
2018-08-19T05:54:55.081Z,102361.17
2018-08-19T05:57:58.383Z,102364.08
2018-08-19T06:01:01.722Z,102363.14
2018-08-19T06:04:04.989Z,102364.65
2018-08-19T06:07:08.302Z,102361.52
2018-08-19T06:10:11.544Z,102363.71
2018-08-19T06:13:14.973Z,102365.91
2018-08-19T06:16:18.485Z,102366.47
2018-08-19T06:19:21.758Z,102366.33
2018-08-19T06:22:42.511Z,102371.16
2018-08-19T06:25:47.339Z,102364.86
2018-08-19T06:28:50.712Z,102367.83
2018-08-19T06:31:54.091Z,102375.16
2018-08-19T06:34:57.390Z,102377.08
2018-08-19T06:38:00.730Z,102371.23
2018-08-19T06:41:04.027Z,102373.83
2018-08-19T06:44:07.408Z,102376.41
2018-08-19T06:47:10.831Z,102373.50
2018-08-19T06:50:24.116Z,102371.62
2018-08-19T06:53:29.399Z,102369.55
2018-08-19T06:56:32.704Z,102367.88
2018-08-19T06:59:36.756Z,102370.94
2018-08-19T07:02:40.327Z,102369.39
2018-08-19T07:05:43.643Z,102370.96
2018-08-19T07:08:47.995Z,102373.97
2018-08-19T07:12:00.368Z,102379.49
2018-08-19T07:15:04.102Z,102375.13
2018-08-19T07:18:09.288Z,102374.62
2018-08-19T07:21:12.727Z,102376.33
2018-08-19T07:24:16.390Z,102373.28
2018-08-19T07:27:19.678Z,102379.59
2018-08-19T07:30:23.103Z,102373.96
2018-08-19T07:33:26.499Z,102371.84
2018-08-19T07:36:29.922Z,102378.09
2018-08-19T07:39:42.551Z,102379.43
2018-08-19T07:42:47.328Z,102378.34
2018-08-19T07:45:50.650Z,102375.80
2018-08-19T07:48:54.056Z,102367.80
2018-08-19T07:51:57.232Z,102366.50
2018-08-19T07:55:00.526Z,102367.30
2018-08-19T07:58:05.016Z,102369.99
2018-08-19T08:01:08.331Z,102368.07
2018-08-19T08:04:11.680Z,102367.77
2018-08-19T08:07:15.352Z,102369.97
2018-08-19T08:10:18.754Z,102367.65
2018-08-19T08:13:22.083Z,102369.58
2018-08-19T08:16:25.451Z,102373.37
2018-08-19T08:19:28.719Z,102376.53
2018-08-19T08:22:33.254Z,102372.63
2018-08-19T08:25:36.462Z,102377.37
2018-08-19T08:28:39.976Z,102379.64
2018-08-19T08:31:48.870Z,102377.10
2018-08-19T08:34:52.283Z,102368.44
2018-08-19T08:37:55.642Z,102377.62
2018-08-19T08:40:58.888Z,102372.46
2018-08-19T08:44:02.305Z,102371.32
2018-08-19T08:47:08.043Z,102372.52
2018-08-19T08:50:12.386Z,102364.89
2018-08-19T08:53:15.702Z,102359.39
2018-08-19T08:56:19.143Z,102350.50
2018-08-19T08:59:22.516Z,102354.24
2018-08-19T09:02:25.905Z,102356.55
2018-08-19T09:05:29.167Z,102354.35
2018-08-19T09:08:32.535Z,102349.01
2018-08-19T09:11:35.907Z,102344.59
2018-08-19T09:14:39.379Z,102345.62
2018-08-19T09:17:42.783Z,102338.74
2018-08-19T09:20:46.573Z,102340.75
2018-08-19T09:23:49.939Z,102333.65
2018-08-19T09:26:53.323Z,102329.18
2018-08-19T09:29:56.529Z,102323.65
2018-08-19T09:33:01.322Z,102331.20
2018-08-19T09:36:04.598Z,102321.16
2018-08-19T09:39:09.674Z,102315.57
2018-08-19T09:42:13.508Z,102312.65
2018-08-19T09:45:17.627Z,102309.73
2018-08-19T09:48:21.021Z,102311.87
2018-08-19T09:51:24.357Z,102310.28
2018-08-19T09:54:31.971Z,102304.86
2018-08-19T09:57:35.204Z,102311.40
2018-08-19T10:00:44.273Z,102298.53
2018-08-19T10:03:48.922Z,102293.65
2018-08-19T10:06:59.517Z,102288.29
2018-08-19T10:10:05.406Z,102282.40
2018-08-19T10:13:08.676Z,102279.93
2018-08-19T10:16:14.120Z,102261.62
2018-08-19T10:19:18.007Z,102266.46
2018-08-19T10:22:21.272Z,102267.08
2018-08-19T10:25:24.631Z,102261.11
2018-08-19T10:28:28.075Z,102261.94
2018-08-19T10:31:31.520Z,102266.05
2018-08-19T10:34:36.028Z,102257.39
2018-08-19T10:37:39.460Z,102261.23
2018-08-19T10:40:43.364Z,102257.92
2018-08-19T10:43:47.452Z,102256.50
2018-08-19T10:46:50.750Z,102245.14
2018-08-19T10:49:58.679Z,102244.66
2018-08-19T10:53:02.589Z,102240.50
2018-08-19T10:56:06.046Z,102233.76
2018-08-19T10:59:09.548Z,102230.97
2018-08-19T11:02:13.393Z,102223.21
2018-08-19T11:05:17.465Z,102220.17
2018-08-19T11:08:22.023Z,102213.84
2018-08-19T11:11:27.713Z,102215.47
2018-08-19T11:14:31.054Z,102209.94
2018-08-19T11:17:35.304Z,102204.24
2018-08-19T11:20:38.887Z,102192.23
2018-08-19T11:23:44.566Z,102189.62
2018-08-19T11:26:52.787Z,102189.36
2018-08-19T11:29:56.766Z,102184.73
2018-08-19T11:33:00.879Z,102177.65
2018-08-19T11:36:04.211Z,102174.53
2018-08-19T11:39:10.722Z,102177.75
2018-08-19T11:42:14.178Z,102174.10
2018-08-19T11:45:18.523Z,102175.15
2018-08-19T11:48:22.106Z,102178.62
2018-08-19T11:51:43.251Z,102171.40
2018-08-19T11:54:48.539Z,102171.80
2018-08-19T11:57:51.838Z,102157.09
2018-08-19T12:01:01.843Z,102157.47
2018-08-19T12:04:06.588Z,102160.54
2018-08-19T12:07:10.235Z,102160.64
2018-08-19T12:10:13.696Z,102158.49
2018-08-19T12:13:18.797Z,102157.57
2018-08-19T12:16:23.926Z,102149.76
2018-08-19T12:19:29.292Z,102146.06
2018-08-19T12:22:32.580Z,102143.75
2018-08-19T12:25:35.987Z,102138.67
2018-08-19T12:28:39.492Z,102137.90
2018-08-19T12:31:42.751Z,102132.78
2018-08-19T12:34:56.512Z,102128.39
2018-08-19T12:37:59.791Z,102119.95
2018-08-19T12:41:04.541Z,102120.89
2018-08-19T12:44:08.112Z,102113.20
2018-08-19T12:47:24.975Z,102116.23
2018-08-19T12:50:28.367Z,102105.96
2018-08-19T12:53:33.496Z,102107.03
2018-08-19T12:56:37.018Z,102100.04
2018-08-19T12:59:40.435Z,102096.32
2018-08-19T13:02:44.815Z,102093.53
2018-08-19T13:06:00.336Z,102097.23
2018-08-19T13:09:03.764Z,102089.99
2018-08-19T13:12:09.238Z,102091.52
2018-08-19T13:15:12.598Z,102084.89
2018-08-19T13:18:20.263Z,102086.24
2018-08-19T13:21:25.759Z,102083.33
2018-08-19T13:24:39.668Z,102079.72
2018-08-19T13:27:43.279Z,102071.37
2018-08-19T13:30:47.600Z,102067.70
2018-08-19T13:33:51.252Z,102067.05
2018-08-19T13:36:54.921Z,102064.31
2018-08-19T13:39:58.411Z,102060.08
2018-08-19T13:43:01.772Z,102059.12
2018-08-19T13:46:05.391Z,102054.15
2018-08-19T13:49:08.701Z,102045.33
2018-08-19T13:52:11.998Z,102039.92
2018-08-19T13:55:17.762Z,102032.62
2018-08-19T13:58:21.178Z,102033.99
2018-08-19T14:01:24.558Z,102031.13
2018-08-19T14:04:27.845Z,102028.21
2018-08-19T14:07:31.319Z,102024.45
2018-08-19T14:10:34.622Z,102024.85
2018-08-19T14:13:37.841Z,102020.12
2018-08-19T14:16:41.241Z,102018.85
2018-08-19T14:19:44.545Z,102005.67
2018-08-19T14:22:48.965Z,102009.38
2018-08-19T14:25:52.354Z,102004.77
2018-08-19T14:28:56.079Z,102001.72
2018-08-19T14:32:00.070Z,102001.66
2018-08-19T14:35:04.607Z,101994.36
2018-08-19T14:38:08.013Z,101998.16
2018-08-19T14:41:11.560Z,101995.92
2018-08-19T14:44:14.719Z,101986.46
2018-08-19T14:47:19.351Z,101984.86
2018-08-19T14:50:22.837Z,101989.75
2018-08-19T14:53:26.210Z,101980.02
2018-08-19T14:56:29.633Z,101980.29
2018-08-19T14:59:33.010Z,101976.10
2018-08-19T15:02:36.407Z,101967.42
2018-08-19T15:05:39.710Z,101967.93
2018-08-19T15:08:43.026Z,101963.02
2018-08-19T15:11:46.976Z,101955.34
2018-08-19T15:14:50.937Z,101958.14
2018-08-19T15:18:01.262Z,101951.96
2018-08-19T15:21:04.618Z,101952.19
2018-08-19T15:24:07.950Z,101949.37
2018-08-19T15:27:11.447Z,101943.53
2018-08-19T15:30:19.042Z,101936.64
2018-08-19T15:33:22.364Z,101936.05
2018-08-19T15:36:25.612Z,101933.99
2018-08-19T15:39:29.139Z,101929.36
2018-08-19T15:42:32.676Z,101933.23
2018-08-19T15:45:36.165Z,101936.66
2018-08-19T15:48:39.745Z,101930.49
2018-08-19T15:51:44.731Z,101929.40
2018-08-19T15:54:53.132Z,101927.98
2018-08-19T15:57:59.312Z,101923.87
2018-08-19T16:01:12.642Z,101922.98
2018-08-19T16:04:20.495Z,101922.84
2018-08-19T16:07:23.839Z,101922.92
2018-08-19T16:10:27.183Z,101918.88
2018-08-19T16:13:30.707Z,101906.90
2018-08-19T16:16:33.963Z,101914.36
2018-08-19T16:19:37.224Z,101916.58
2018-08-19T16:22:40.896Z,101905.06
2018-08-19T16:25:44.296Z,101903.36
2018-08-19T16:28:48.810Z,101903.05
2018-08-19T16:31:52.256Z,101901.80
2018-08-19T16:34:55.544Z,101902.91
2018-08-19T16:37:58.693Z,101895.36
2018-08-19T16:41:01.994Z,101896.92
2018-08-19T16:44:05.416Z,101900.12
2018-08-19T16:47:08.814Z,101893.28
2018-08-19T16:50:13.308Z,101897.01
2018-08-19T16:53:17.183Z,101893.16
2018-08-19T16:56:20.406Z,101893.69
2018-08-19T16:59:23.931Z,101896.28
2018-08-19T17:02:27.328Z,101891.57
2018-08-19T17:05:34.291Z,101887.11
2018-08-19T17:08:38.230Z,101887.88
2018-08-19T17:11:42.503Z,101893.54
2018-08-19T17:14:45.747Z,101892.40
2018-08-19T17:17:49.057Z,101893.32
2018-08-19T17:20:52.774Z,101900.22
2018-08-19T17:23:56.106Z,101902.31
2018-08-19T17:27:04.969Z,101902.30
2018-08-19T17:30:12.443Z,101901.43
2018-08-19T17:33:16.352Z,101895.01
2018-08-19T17:36:25.723Z,101892.75
2018-08-19T17:39:31.280Z,101896.82
2018-08-19T17:42:34.478Z,101897.44
2018-08-19T17:45:38.153Z,101899.98
2018-08-19T17:48:43.058Z,101898.99
2018-08-19T17:51:46.351Z,101901.87
2018-08-19T17:54:49.771Z,101901.12
2018-08-19T17:57:54.806Z,101901.09
2018-08-19T18:00:58.130Z,101904.55
2018-08-19T18:04:01.476Z,101908.17
2018-08-19T18:07:04.770Z,101912.67
2018-08-19T18:10:14.742Z,101910.71
2018-08-19T18:13:17.972Z,101913.13
2018-08-19T18:16:22.109Z,101916.60
2018-08-19T18:19:25.403Z,101909.56
2018-08-19T18:22:28.735Z,101916.08
2018-08-19T18:25:32.252Z,101912.30
2018-08-19T18:28:35.507Z,101918.00
2018-08-19T18:31:38.844Z,101919.01
2018-08-19T18:34:42.230Z,101920.90
2018-08-19T18:37:46.118Z,101918.35
2018-08-19T18:40:49.457Z,101918.45
2018-08-19T18:43:55.048Z,101919.08
2018-08-19T18:46:59.155Z,101924.67
2018-08-19T18:50:06.637Z,101929.04
2018-08-19T18:53:10.818Z,101930.47
2018-08-19T18:56:14.105Z,101935.22
2018-08-19T18:59:17.434Z,101937.16
2018-08-19T19:02:20.669Z,101938.31
2018-08-19T19:05:31.399Z,101940.54
2018-08-19T19:08:34.679Z,101943.12
2018-08-19T19:11:38.048Z,101944.69
2018-08-19T19:14:42.422Z,101946.11
2018-08-19T19:17:47.564Z,101942.16
2018-08-19T19:20:56.464Z,101944.00
2018-08-19T19:24:00.607Z,101946.02
2018-08-19T19:27:03.837Z,101949.31
2018-08-19T19:30:07.734Z,101951.02
2018-08-19T19:33:12.658Z,101957.70
2018-08-19T19:36:20.252Z,101960.97
2018-08-19T19:39:23.572Z,101958.34
2018-08-19T19:42:28.751Z,101968.49
2018-08-19T19:45:42.469Z,101970.59
2018-08-19T19:48:48.090Z,101970.63
2018-08-19T19:51:59.488Z,101970.98
2018-08-19T19:55:02.723Z,101974.33
2018-08-19T19:58:08.255Z,101976.96
2018-08-19T20:01:11.743Z,101977.80
2018-08-19T20:04:14.955Z,101983.14
2018-08-19T20:07:18.947Z,101984.31
2018-08-19T20:10:26.367Z,101982.78
2018-08-19T20:13:30.809Z,101984.16
2018-08-19T20:16:34.463Z,101986.72
2018-08-19T20:19:38.181Z,101985.53
2018-08-19T20:22:41.569Z,101983.73
2018-08-19T20:25:46.158Z,101985.95
2018-08-19T20:28:50.532Z,101986.62
2018-08-19T20:31:53.936Z,101989.27
2018-08-19T20:34:58.090Z,101990.60
2018-08-19T20:38:20.046Z,101987.41
2018-08-19T20:41:23.866Z,101993.72
2018-08-19T20:44:29.147Z,101995.79
2018-08-19T20:47:32.552Z,101999.11
2018-08-19T20:50:36.388Z,102001.90
2018-08-19T20:53:39.562Z,102003.80
2018-08-19T20:56:42.969Z,102007.63
2018-08-19T20:59:46.301Z,102011.66
2018-08-19T21:02:49.587Z,102014.62
2018-08-19T21:05:54.783Z,102014.03
2018-08-19T21:08:59.048Z,102016.91
2018-08-19T21:12:02.833Z,102020.05
2018-08-19T21:15:06.349Z,102017.44
2018-08-19T21:18:09.636Z,102019.84
2018-08-19T21:21:14.123Z,102019.44
2018-08-19T21:24:17.902Z,102027.40
2018-08-19T21:27:21.954Z,102032.47
2018-08-19T21:30:25.818Z,102030.33
2018-08-19T21:33:30.196Z,102034.84
2018-08-19T21:36:33.590Z,102040.39
2018-08-19T21:39:38.190Z,102041.27
2018-08-19T21:42:49.555Z,102043.62
2018-08-19T21:45:52.908Z,102046.58
2018-08-19T21:48:56.582Z,102045.75
2018-08-19T21:52:00.538Z,102046.13
2018-08-19T21:55:04.038Z,102047.98
2018-08-19T21:58:07.793Z,102050.45
2018-08-19T22:01:16.640Z,102049.18
2018-08-19T22:04:21.265Z,102049.26
2018-08-19T22:07:25.011Z,102050.66
2018-08-19T22:10:28.498Z,102058.01
2018-08-19T22:13:32.004Z,102055.97
2018-08-19T22:16:35.579Z,102062.19
2018-08-19T22:19:39.597Z,102066.35
2018-08-19T22:22:43.993Z,102065.29
2018-08-19T22:25:47.580Z,102064.86
2018-08-19T22:29:08.511Z,102070.39
2018-08-19T22:32:12.041Z,102073.85
2018-08-19T22:35:15.515Z,102071.05
2018-08-19T22:38:22.931Z,102081.33
2018-08-19T22:41:31.019Z,102078.31
2018-08-19T22:44:34.288Z,102079.36
2018-08-19T22:47:37.582Z,102080.37
2018-08-19T22:50:40.869Z,102078.87
2018-08-19T22:53:44.076Z,102079.63
2018-08-19T22:56:48.648Z,102076.77
2018-08-19T22:59:52.195Z,102074.74
2018-08-19T23:02:56.507Z,102076.33
2018-08-19T23:06:00.719Z,102072.31
2018-08-19T23:09:04.945Z,102066.79
2018-08-19T23:12:08.183Z,102068.84
2018-08-19T23:15:23.149Z,102065.26
2018-08-19T23:18:27.661Z,102067.09
2018-08-19T23:21:30.955Z,102070.21
2018-08-19T23:24:34.399Z,102068.61
2018-08-19T23:27:37.700Z,102074.64
2018-08-19T23:30:41.113Z,102072.46
2018-08-19T23:33:45.398Z,102072.46
2018-08-19T23:36:48.958Z,102065.66
2018-08-19T23:39:52.609Z,102067.02
2018-08-19T23:42:56.137Z,102069.21
2018-08-19T23:46:00.828Z,102067.89
2018-08-19T23:49:04.666Z,102066.30
2018-08-19T23:52:08.036Z,102068.00
2018-08-19T23:55:11.573Z,102069.79
2018-08-19T23:58:14.897Z,102071.68
